Time;durP1;ratioP1;P1;durP2;ratioP2;P2;SDS_P1;SDS_P2;PMS_P1;PMS_P2;Temp;Humidity;BMP_temperature;BMP_pressure;BME280_temperature;BME280_humidity;BME280_pressure;Samples;Min_cycle;Max_cycle;Signal;HPM_P1;HPM_P2
2022/11/24 00:02:49;;;;;;;9.68;3.08;;;13.60;83.00;;;;;;20996498;28;20055;-56
2022/11/24 00:12:51;;;;;;;7.18;2.70;;;13.60;82.70;;;;;;20996652;28;20051;-56
2022/11/24 00:22:54;;;;;;;8.55;2.30;;;13.50;82.60;;;;;;20996033;28;20044;-56
2022/11/24 00:32:56;;;;;;;6.57;2.47;;;13.50;82.40;;;;;;20994286;28;20056;-56
2022/11/24 00:42:59;;;;;;;7.60;2.38;;;13.70;82.00;;;;;;21008516;28;20084;-57
2022/11/24 00:53:01;;;;;;;5.80;2.40;;;13.60;81.90;;;;;;21010057;28;20489;-54
2022/11/24 01:03:03;;;;;;;7.45;2.30;;;13.60;82.00;;;;;;21008904;28;20084;-55
2022/11/24 01:13:04;;;;;;;8.85;2.50;;;13.70;82.10;;;;;;21009155;28;20098;-55
2022/11/24 01:23:06;;;;;;;7.63;2.63;;;13.70;81.60;;;;;;21006870;28;20068;-57
2022/11/24 01:33:08;;;;;;;10.15;2.65;;;13.70;81.50;;;;;;21006718;28;20079;-56
2022/11/24 01:43:18;;;;;;;8.13;2.05;;;13.70;81.30;;;;;;21006687;28;20055;-56
2022/11/24 01:53:22;;;;;;;8.50;2.13;;;13.70;81.20;;;;;;21004667;28;20381;-56
2022/11/24 02:03:30;;;;;;;6.93;2.15;;;13.70;81.00;;;;;;21003988;28;20060;-55
2022/11/24 02:13:37;;;;;;;7.00;2.83;;;13.70;80.80;;;;;;21004517;28;20045;-55
2022/11/24 02:24:06;;;;;;;5.90;2.00;;;13.60;80.50;;;;;;21002387;28;20059;-54
2022/11/24 02:34:08;;;;;;;9.00;2.60;;;13.60;80.10;;;;;;20987844;28;20052;-56
2022/11/24 02:44:16;;;;;;;5.97;2.53;;;13.50;80.20;;;;;;21002024;28;20446;-56
2022/11/24 02:54:19;;;;;;;11.90;3.10;;;13.50;79.80;;;;;;21000844;28;20049;-57
2022/11/24 03:04:28;;;;;;;11.85;2.80;;;13.40;79.90;;;;;;20999330;28;20048;-56
2022/11/24 03:14:38;;;;;;;9.75;3.42;;;13.30;80.30;;;;;;20998516;28;20049;-55
2022/11/24 03:24:54;;;;;;;14.60;3.78;;;13.30;80.10;;;;;;20998238;28;20056;-58
2022/11/24 03:35:04;;;;;;;12.18;3.30;;;13.30;80.20;;;;;;20997449;28;20048;-56
2022/11/24 03:45:15;;;;;;;15.65;3.83;;;13.20;80.30;;;;;;20996895;28;20057;-56
2022/11/24 03:55:18;;;;;;;11.75;3.17;;;13.20;80.20;;;;;;20995351;28;20492;-56
2022/11/24 04:05:27;;;;;;;15.20;3.60;;;13.20;80.10;;;;;;20995621;28;20106;-55
2022/11/24 04:15:30;;;;;;;15.93;3.53;;;13.20;80.20;;;;;;20995171;28;20052;-55
2022/11/24 04:25:37;;;;;;;16.70;4.60;;;13.10;80.10;;;;;;20995146;28;20493;-56
2022/11/24 04:35:38;;;;;;;14.93;5.10;;;13.20;80.00;;;;;;20994207;28;20049;-55
2022/11/24 04:45:41;;;;;;;18.58;5.38;;;13.00;80.40;;;;;;20994458;28;20056;-55
2022/11/24 04:55:54;;;;;;;20.10;5.63;;;13.00;80.60;;;;;;20994751;28;20462;-55
2022/11/24 05:05:58;;;;;;;15.45;4.50;;;13.00;80.00;;;;;;20994182;28;20132;-55
2022/11/24 05:16:00;;;;;;;18.77;5.68;;;13.00;79.80;;;;;;20993176;28;20143;-55
2022/11/24 05:26:03;;;;;;;22.17;6.75;;;13.00;79.50;;;;;;20997501;28;20044;-56
2022/11/24 05:36:06;;;;;;;33.30;7.68;;;12.90;79.70;;;;;;21007218;28;20442;-57
2022/11/24 05:46:07;;;;;;;31.52;5.00;;;12.80;80.00;;;;;;21005843;28;20060;-55
2022/11/24 05:56:10;;;;;;;24.92;5.82;;;12.70;79.80;;;;;;21005406;28;20044;-55
2022/11/24 06:06:11;;;;;;;14.93;4.40;;;12.70;80.10;;;;;;21005400;28;20556;-56
2022/11/24 06:16:14;;;;;;;25.00;4.32;;;12.70;79.90;;;;;;21004097;28;20048;-59
2022/11/24 06:26:19;;;;;;;21.85;4.75;;;12.50;80.00;;;;;;21002454;28;20427;-56
2022/11/24 06:36:20;;;;;;;25.03;5.17;;;12.50;80.10;;;;;;21001894;28;20044;-56
2022/11/24 06:46:22;;;;;;;16.77;6.05;;;12.50;79.80;;;;;;21001353;28;20500;-55
2022/11/24 06:56:23;;;;;;;25.85;5.65;;;12.50;80.10;;;;;;21001004;28;20439;-55
2022/11/24 07:06:25;;;;;;;17.23;5.15;;;12.50;79.70;;;;;;20999201;28;20040;-54
2022/11/24 07:16:28;;;;;;;19.35;5.30;;;12.40;79.80;;;;;;20998704;28;20048;-55
2022/11/24 07:26:36;;;;;;;28.15;7.18;;;12.40;80.10;;;;;;20996953;28;20045;-56
2022/11/24 07:36:38;;;;;;;20.08;6.00;;;12.40;79.90;;;;;;20996980;28;20417;-57
2022/11/24 07:46:39;;;;;;;20.55;5.80;;;12.30;79.80;;;;;;20996345;28;20092;-55
2022/11/24 07:56:41;;;;;;;25.60;6.43;;;12.40;79.70;;;;;;20995501;28;20135;-55
2022/11/24 08:06:43;;;;;;;23.08;6.20;;;12.40;79.80;;;;;;20995993;28;20385;-55
2022/11/24 08:16:44;;;;;;;26.02;6.70;;;12.40;79.80;;;;;;20995308;28;20532;-55
2022/11/24 08:26:46;;;;;;;28.20;7.78;;;12.50;79.80;;;;;;20995433;28;20118;-57
2022/11/24 08:36:47;;;;;;;31.20;8.13;;;12.70;79.60;;;;;;20995025;28;20458;-56
2022/11/24 08:46:49;;;;;;;33.00;7.95;;;12.70;79.40;;;;;;20994081;28;20048;-57
2022/11/24 08:56:50;;;;;;;26.67;8.25;;;12.80;78.80;;;;;;20995454;28;20523;-56
2022/11/24 09:06:51;;;;;;;27.88;7.75;;;12.80;78.90;;;;;;21008751;28;20385;-56
2022/11/24 09:16:53;;;;;;;24.90;6.88;;;12.90;78.60;;;;;;21007869;28;20127;-56
2022/11/24 09:26:55;;;;;;;28.63;8.48;;;13.00;78.50;;;;;;21006309;28;20091;-56
2022/11/24 09:36:57;;;;;;;32.15;8.38;;;13.00;78.30;;;;;;21006403;28;20135;-58
2022/11/24 09:47:19;;;;;;;27.70;10.63;;;13.00;79.00;;;;;;21005247;28;20056;-55
2022/11/24 09:57:24;;;;;;;34.55;10.45;;;13.00;79.30;;;;;;21004377;28;20088;-57
2022/11/24 10:07:36;;;;;;;31.63;11.93;;;13.10;79.10;;;;;;21003802;28;20504;-56
2022/11/24 10:18:02;;;;;;;42.05;16.10;;;13.20;78.80;;;;;;21002297;28;20135;-56
2022/11/24 10:28:11;;;;;;;23.50;8.90;;;13.30;78.10;;;;;;21002039;28;20416;-53
2022/11/24 10:38:18;;;;;;;21.10;8.40;;;14.50;75.40;;;;;;21001176;28;20127;-59
2022/11/24 10:48:28;;;;;;;24.67;8.90;;;15.20;72.40;;;;;;20983076;28;20044;-61
2022/11/24 10:58:37;;;;;;;20.98;7.25;;;15.60;70.90;;;;;;21000587;28;20477;-54
2022/11/24 11:08:39;;;;;;;22.95;6.07;;;15.70;71.20;;;;;;20980350;28;20083;-58
2022/11/24 11:18:47;;;;;;;19.15;4.93;;;15.30;72.50;;;;;;20997072;28;20128;-57
2022/11/24 11:29:07;;;;;;;20.92;5.63;;;15.60;71.40;;;;;;20995835;28;20124;-56
2022/11/24 11:39:22;;;;;;;14.82;4.60;;;15.90;70.50;;;;;;20995610;28;20092;-62
2022/11/24 11:49:23;;;;;;;17.17;5.45;;;15.60;71.10;;;;;;20995336;28;20047;-59
2022/11/24 11:59:44;;;;;;;20.67;4.72;;;15.70;71.00;;;;;;20995154;28;20048;-56
2022/11/24 12:09:49;;;;;;;19.33;4.82;;;15.70;70.40;;;;;;20995622;28;20404;-57
2022/11/24 12:20:17;;;;;;;12.70;3.60;;;15.90;68.90;;;;;;20994684;28;20511;-56
2022/11/24 12:30:21;;;;;;;14.00;6.28;;;15.60;68.80;;;;;;20993607;28;20412;-56
2022/11/24 12:41:06;;;;;;;14.63;6.10;;;15.50;69.60;;;;;;21009566;28;20054;-56
2022/11/24 12:51:17;;;;;;;16.02;7.18;;;15.50;69.70;;;;;;21010574;28;20124;-57
2022/11/24 13:01:32;;;;;;;11.38;4.53;;;15.50;70.40;;;;;;21008662;28;20060;-56
2022/11/24 13:11:47;;;;;;;11.40;4.22;;;15.70;70.80;;;;;;21008422;28;20454;-55
2022/11/24 13:22:02;;;;;;;11.55;4.07;;;15.70;73.10;;;;;;21007360;28;20122;-56
2022/11/24 13:32:04;;;;;;;14.40;6.55;;;15.60;74.20;;;;;;21006596;28;20057;-56
2022/11/24 13:42:05;;;;;;;12.80;3.97;;;15.60;74.00;;;;;;21006616;28;20102;-55
2022/11/24 13:52:34;;;;;;;13.85;5.55;;;15.60;74.70;;;;;;21005209;28;20086;-56
2022/11/24 14:02:36;;;;;;;12.90;3.78;;;15.90;73.80;;;;;;21004589;28;20049;-53
2022/11/24 14:12:37;;;;;;;11.25;3.72;;;16.00;74.30;;;;;;21003540;28;20041;-54
2022/11/24 14:22:40;;;;;;;15.75;7.25;;;16.10;73.20;;;;;;21002641;28;20052;-57
2022/11/24 14:32:56;;;;;;;12.27;6.18;;;16.20;73.70;;;;;;21001903;28;20488;-57
2022/11/24 14:42:57;;;;;;;18.08;7.10;;;16.20;74.50;;;;;;21002119;28;20052;-57
2022/11/24 14:52:59;;;;;;;19.17;7.53;;;16.10;76.00;;;;;;21001615;28;20044;-56
2022/11/24 15:03:01;;;;;;;17.00;6.88;;;16.10;76.00;;;;;;20980791;28;20052;-56
2022/11/24 15:13:14;;;;;;;14.48;5.55;;;15.90;76.60;;;;;;20998618;28;20050;-54
2022/11/24 15:23:21;;;;;;;7.40;3.80;;;15.90;78.50;;;;;;20997141;28;20068;-55
2022/11/24 15:33:24;;;;;;;7.57;3.33;;;15.80;80.60;;;;;;20996166;28;20056;-57
2022/11/24 15:43:37;;;;;;;5.88;2.90;;;15.80;81.20;;;;;;20996490;28;20052;-56
2022/11/24 15:53:45;;;;;;;6.93;2.35;;;15.70;80.20;;;;;;20996212;28;20048;-56
2022/11/24 16:03:47;;;;;;;10.35;2.80;;;15.70;79.50;;;;;;20995689;28;20439;-55
2022/11/24 16:13:50;;;;;;;10.18;3.58;;;15.60;80.10;;;;;;20994497;28;20051;-56
2022/11/24 16:23:52;;;;;;;8.90;3.03;;;15.50;80.80;;;;;;20994302;28;20048;-55
2022/11/24 16:33:54;;;;;;;4.25;2.55;;;15.50;80.80;;;;;;20994586;28;20473;-57
2022/11/24 16:43:56;;;;;;;6.82;3.15;;;15.50;80.90;;;;;;20994449;28;20052;-57
2022/11/24 16:54:00;;;;;;;6.22;3.05;;;15.40;81.10;;;;;;20993850;28;20131;-58
2022/11/24 17:04:01;;;;;;;7.55;2.65;;;15.40;81.30;;;;;;20993274;28;20488;-58
2022/11/24 17:14:03;;;;;;;7.95;2.80;;;15.40;80.90;;;;;;21006788;28;20040;-56
2022/11/24 17:24:07;;;;;;;7.53;3.42;;;15.40;81.60;;;;;;21038838;28;20067;-58
2022/11/24 17:34:10;;;;;;;9.23;3.27;;;15.30;82.30;;;;;;21045649;28;20044;-57
2022/11/24 17:44:12;;;;;;;9.47;3.77;;;15.20;83.20;;;;;;21050201;28;20051;-59
2022/11/24 17:54:16;;;;;;;7.53;3.35;;;15.20;82.90;;;;;;21085059;28;20097;-57
2022/11/24 18:04:18;;;;;;;12.02;3.70;;;15.10;82.90;;;;;;21059401;28;20215;-56
2022/11/24 18:14:20;;;;;;;11.07;3.30;;;15.40;81.80;;;;;;20998064;28;20496;-59
2022/11/24 18:24:22;;;;;;;6.55;2.92;;;15.70;80.80;;;;;;21003248;28;20056;-57
2022/11/24 18:34:24;;;;;;;8.98;4.65;;;15.40;81.10;;;;;;20994205;28;20056;-57
2022/11/24 18:44:26;;;;;;;7.88;3.10;;;15.20;81.40;;;;;;20998872;28;20114;-56
2022/11/24 18:54:28;;;;;;;7.72;3.88;;;15.30;81.40;;;;;;20991634;28;20539;-59
2022/11/24 19:04:29;;;;;;;6.50;3.00;;;15.40;81.20;;;;;;20986162;28;20454;-61
2022/11/24 19:14:32;;;;;;;6.93;3.30;;;15.50;81.20;;;;;;20993339;28;20048;-62
2022/11/24 19:24:33;;;;;;;6.90;2.72;;;15.40;81.40;;;;;;21016424;28;20060;-60
2022/11/24 19:34:35;;;;;;;4.93;3.10;;;15.40;81.60;;;;;;20996321;28;20415;-59
2022/11/24 19:44:37;;;;;;;6.03;3.55;;;16.50;79.30;;;;;;20994983;28;20052;-58
2022/11/24 19:54:39;;;;;;;9.65;3.85;;;15.70;81.00;;;;;;20995504;28;20182;-56
2022/11/24 20:04:41;;;;;;;9.77;4.97;;;15.40;82.30;;;;;;20994747;28;20052;-58
2022/11/24 20:14:43;;;;;;;7.40;4.80;;;15.30;83.10;;;;;;20995042;28;20045;-58
2022/11/24 20:24:45;;;;;;;7.22;3.53;;;15.20;83.50;;;;;;20994009;28;20052;-58
2022/11/24 20:34:47;;;;;;;4.38;2.25;;;15.10;83.80;;;;;;20994876;28;20154;-59
2022/11/24 20:44:48;;;;;;;6.60;3.05;;;15.10;83.80;;;;;;20994623;28;20481;-58
2022/11/24 20:54:50;;;;;;;4.38;2.30;;;15.10;83.80;;;;;;20998180;28;20048;-58
2022/11/24 21:04:51;;;;;;;4.25;2.53;;;15.20;83.80;;;;;;21008703;28;20075;-57
2022/11/24 21:14:54;;;;;;;4.32;2.00;;;15.10;84.20;;;;;;21007537;28;20048;-61
2022/11/24 21:24:57;;;;;;;5.88;2.80;;;15.00;84.20;;;;;;21006865;28;20092;-60
2022/11/24 21:34:58;;;;;;;5.07;2.45;;;15.00;84.30;;;;;;21007441;28;20485;-60
2022/11/24 21:45:01;;;;;;;5.28;3.88;;;14.80;84.40;;;;;;21006567;28;20055;-58
2022/11/24 21:55:04;;;;;;;2.97;1.25;;;14.70;84.70;;;;;;21005813;28;20396;-62
2022/11/24 22:05:06;;;;;;;4.60;2.00;;;14.60;84.90;;;;;;21004012;28;20544;-61
2022/11/24 22:15:09;;;;;;;3.28;1.50;;;14.50;84.80;;;;;;21004697;28;20539;-60
2022/11/24 22:25:12;;;;;;;3.17;2.13;;;14.50;84.80;;;;;;20985131;28;20072;-60
2022/11/24 22:35:13;;;;;;;3.80;2.10;;;14.50;85.00;;;;;;21002868;28;20404;-62
2022/11/24 22:45:15;;;;;;;3.10;2.20;;;14.50;85.20;;;;;;21001718;28;20488;-60
2022/11/24 22:55:17;;;;;;;4.38;1.83;;;14.40;85.10;;;;;;21000894;28;20045;-59
2022/11/24 23:05:19;;;;;;;3.88;1.40;;;14.40;85.00;;;;;;20999277;28;20105;-58
2022/11/24 23:15:20;;;;;;;2.30;1.30;;;14.40;84.80;;;;;;20998953;28;20125;-59
2022/11/24 23:25:22;;;;;;;1.70;0.85;;;14.40;84.80;;;;;;20997183;28;20057;-59
2022/11/24 23:35:24;;;;;;;1.70;0.90;;;14.40;84.20;;;;;;20996995;28;20049;-57
2022/11/24 23:45:26;;;;;;;1.70;1.00;;;14.40;83.70;;;;;;20996588;28;20457;-58
2022/11/24 23:55:28;;;;;;;2.13;1.40;;;14.40;83.30;;;;;;20996180;28;20052;-58
